Amy C. Mc Allister — WCZ9520 — position and weather

sailwx.info

Track history (hours):
 
Tides and Currents Weather Stations Pressure Air Temp Water Temp Dewpoint Dewpoint Depression Visibility Wind Speed Wind Dir Waves Ship Positions

Amy C. Mc Allister

Owner: MC ALLISTER TOWING & TRANSPORTATION INC, NEW YORK, NY. More information available from US FCC via Universal Licensing System and Coast Guard Vessel Documentation Center.

Last reported at 2016-May-28 03:32 UTC. Time now 2016-May-28 04:06 UTC.
Position N 40°38' W 074°10'.

Length 27 m; draft 4.9 m.

Type: Towing. MMSI: 366995040.

Date/timePositionNaut miles runAvg speedWind from/ knotsBaromVisibWave heightAir tempDewpointWater temp
2016-May-28 03:32N 40°38' W 074°10'1 0.3
2016-May-27 23:33N 40°39' W 074°09'1 1.3
2016-May-27 22:33N 40°41' W 074°09'1 1.2
2016-May-27 21:32N 40°40' W 074°09'0 0.0
2016-May-27 16:33N 40°40' W 074°09'0 0.0
2016-May-27 15:31N 40°40' W 074°09'0 0.2
2016-May-27 14:33N 40°40' W 074°09'0 0.5
2016-May-27 13:33N 40°40' W 074°08'1 0.5
2016-May-27 12:33N 40°40' W 074°09'0 0.5
2016-May-27 11:33N 40°40' W 074°08'3 2.7
2016-May-27 10:33N 40°39' W 074°05'1 0.7
2016-May-27 09:33N 40°39' W 074°06'0 0.0
2016-May-27 08:33N 40°39' W 074°06'0 0.0
2016-May-27 07:33N 40°39' W 074°06'0 0.0
2016-May-27 06:33N 40°39' W 074°06'0 0.0
2016-May-27 05:33N 40°39' W 074°06'0 0.0
2016-May-27 04:33N 40°39' W 074°06'0 0.0
2016-May-27 03:32N 40°39' W 074°06'2 1.7
2016-May-27 02:34N 40°40' W 074°04'1 0.7
2016-May-27 01:33N 40°40' W 074°05'0 0.3
2016-May-27 00:33N 40°40' W 074°04'0 0.0
2016-May-26 23:33N 40°40' W 074°04'2 2.1
2016-May-26 22:33N 40°39' W 074°07'0 0.4
2016-May-26 21:33N 40°39' W 074°06'4 1.9
2016-May-26 19:15N 40°38' W 074°12'4 6.0
2016-May-26 18:33N 40°39' W 074°06'3 2.7
2016-May-26 17:31N 40°39' W 074°10'2 1.6
2016-May-26 16:21N 40°38' W 074°12'2 2.4
2016-May-26 15:33N 40°38' W 074°10'0 0.0
2016-May-26 14:33N 40°38' W 074°10'0 0.0
2016-May-26 13:33N 40°38' W 074°10'0 0.0
2016-May-26 12:33N 40°38' W 074°10'4 4.5
2016-May-26 11:33N 40°38' W 074°04'0 0.2
2016-May-26 10:34N 40°39' W 074°04'4 3.7
2016-May-26 09:32N 40°40' W 074°08'1 1.3
2016-May-26 08:33N 40°41' W 074°08'3 3.3
2016-May-26 07:33N 40°38' W 074°10'0 0.0
2016-May-26 06:33N 40°38' W 074°10'0 0.0
2016-May-26 05:22N 40°38' W 074°10'0 0.0
2016-May-26 04:33N 40°38' W 074°10'0 0.0
2016-May-26 03:31N 40°38' W 074°10'0 0.0
2016-May-26 02:32N 40°38' W 074°10'5 5.3
2016-May-26 01:33N 40°40' W 074°03'2 1.6
2016-May-26 00:33N 40°40' W 074°05'0 0.0
2016-May-25 23:33N 40°40' W 074°05'1 0.9
2016-May-25 22:33N 40°39' W 074°04'3 3.0
2016-May-25 21:32N 40°40' W 074°08'2 2.5
2016-May-25 20:33N 40°39' W 074°06'3 2.5
2016-May-25 19:29N 40°37' W 074°03'5 5.1
2016-May-25 18:30N 40°40' W 074°09'10 1.8
2016-May-25 13:10N 40°31' W 074°15'4 6.3
2016-May-25 12:33N 40°35' W 074°13'1 1.3
2016-May-25 11:33N 40°36' W 074°12'4 4.1
2016-May-25 10:31N 40°40' W 074°09'0 0.0
2016-May-25 09:32N 40°40' W 074°09'0 0.0
2016-May-25 08:31N 40°40' W 074°09'1 1.3
2016-May-25 07:34N 40°39' W 074°10'2 0.1
2016-May-23 21:33N 40°40' W 074°08'0 0.2
2016-May-23 20:33N 40°40' W 074°08'3 2.6
2016-May-23 19:33N 40°39' W 074°05'3 2.7
2016-May-23 18:33N 40°37' W 074°03'4 4.2
2016-May-23 17:34N 40°39' W 074°08'1 0.2
2016-May-23 13:30N 40°39' W 074°09'1 1.3
2016-May-23 12:33N 40°41' W 074°09'1 0.7
2016-May-23 11:32N 40°41' W 074°08'1 0.5
2016-May-23 10:21N 40°42' W 074°08'2 2.7
2016-May-23 09:34N 40°40' W 074°09'0 0.0
2016-May-23 08:34N 40°40' W 074°09'0 0.0
2016-May-23 07:34N 40°40' W 074°09'0 0.0
2016-May-23 06:34N 40°40' W 074°09'0 0.0
2016-May-23 05:34N 40°40' W 074°09'1 0.9
2016-May-23 04:33N 40°40' W 074°08'0 0.1
2016-May-23 03:33N 40°40' W 074°08'0 0.1
2016-May-23 02:34N 40°40' W 074°08'0 0.0
2016-May-23 01:34N 40°40' W 074°08'0 0.0
2016-May-23 00:34N 40°40' W 074°08'0 0.0
2016-May-22 23:34N 40°40' W 074°08'0 0.0
2016-May-22 22:32N 40°40' W 074°08'0 0.1
2016-May-22 21:15N 40°40' W 074°08'2 0.4
2016-May-22 15:06N 40°39' W 074°10'2 3.5
2016-May-22 14:33N 40°40' W 074°09'3 2.7
2016-May-22 13:34N 40°39' W 074°05'1 1.3
2016-May-22 12:34N 40°40' W 074°04'0 0.0
2016-May-22 11:34N 40°40' W 074°04'3 2.6
2016-May-22 10:31N 40°40' W 074°01'6 6.7
2016-May-22 09:33N 40°46' W 074°00'1 0.0
2016-May-21 05:33N 40°45' W 074°01'7 6.8
2016-May-21 04:34N 40°39' W 074°04'6 6.0
2016-May-21 03:33N 40°38' W 074°12'1 0.7
2016-May-21 01:33N 40°39' W 074°11'1 0.8
2016-May-21 00:32N 40°39' W 074°10'2 0.5
2016-May-20 21:16N 40°38' W 074°12'2 0.2
2016-May-20 11:23N 40°38' W 074°10'2 1.9
2016-May-20 10:33N 40°40' W 074°09'1 1.2
2016-May-20 09:33N 40°39' W 074°09'0 0.0
2016-May-20 01:33N 40°39' W 074°09'0 0.1
2016-May-19 23:33N 40°39' W 074°09'0 0.5
2016-May-19 22:33N 40°39' W 074°09'2 1.1
2016-May-19 20:33N 40°39' W 074°06'3 3.2
2016-May-19 19:33N 40°41' W 074°03'4 3.7
2016-May-19 18:33N 40°42' W 073°58'3 2.9
2016-May-19 17:33N 40°41' W 074°01'7 1.6
2016-May-19 13:13N 40°39' W 074°10'2 2.6
2016-May-19 12:33N 40°38' W 074°12'1 1.1
2016-May-19 11:28N 40°39' W 074°11'6 6.1
2016-May-19 10:33N 40°39' W 074°04'1 1.2
2016-May-19 09:33N 40°39' W 074°05'3 0.6
2016-May-19 03:33N 40°38' W 074°09'4 4.1
2016-May-19 02:33N 40°40' W 074°04'2 2.1
2016-May-19 01:33N 40°39' W 074°07'2 1.2
2016-May-18 23:27N 40°38' W 074°10'2 2.4
2016-May-18 22:33N 40°40' W 074°08'1 0.5
2016-May-18 21:33N 40°41' W 074°09'0 0.0
2016-May-18 20:32N 40°41' W 074°09'0 0.0
2016-May-18 19:33N 40°41' W 074°09'1 1.2
2016-May-18 18:32N 40°42' W 074°09'3 3.5
2016-May-18 17:34N 40°38' W 074°09'1 0.9
2016-May-18 16:28N 40°39' W 074°09'1 0.7
2016-May-18 15:33N 40°39' W 074°09'1 0.3
2016-May-18 13:28N 40°38' W 074°10'0 0.0
2016-May-18 11:23N 40°38' W 074°10'0 0.0
2016-May-18 10:33N 40°38' W 074°10'0 0.0
2016-May-18 09:31N 40°38' W 074°10'0 0.0
2016-May-18 08:33N 40°38' W 074°10'2 0.7
2016-May-18 06:17N 40°38' W 074°12'4 5.3
2016-May-18 05:33N 40°39' W 074°07'6 5.7
2016-May-18 04:33N 40°41' W 074°00'0 0.0
2016-May-18 03:34N 40°41' W 074°00'  
Track history (hours):
 
Tides and Currents Weather Stations Pressure Air Temp Water Temp Dewpoint Dewpoint Depression Visibility Wind Speed Wind Dir Waves Ship Positions

Amy C. Mc Allister

Owner: MC ALLISTER TOWING & TRANSPORTATION INC, NEW YORK, NY. More information available from US FCC via Universal Licensing System and Coast Guard Vessel Documentation Center.

Last reported at 2016-May-28 03:32 UTC. Time now 2016-May-28 04:06 UTC.
Position N 40°38' W 074°10'.

Length 27 m; draft 4.9 m.

Type: Towing. MMSI: 366995040.

Date/timePositionNaut miles runAvg speedWind from/ knotsBaromVisibWave heightAir tempDewpointWater temp
2016-May-28 03:32N 40°38' W 074°10'1 0.3
2016-May-27 23:33N 40°39' W 074°09'1 1.3
2016-May-27 22:33N 40°41' W 074°09'1 1.2
2016-May-27 21:32N 40°40' W 074°09'0 0.0
2016-May-27 16:33N 40°40' W 074°09'0 0.0
2016-May-27 15:31N 40°40' W 074°09'0 0.2
2016-May-27 14:33N 40°40' W 074°09'0 0.5
2016-May-27 13:33N 40°40' W 074°08'1 0.5
2016-May-27 12:33N 40°40' W 074°09'0 0.5
2016-May-27 11:33N 40°40' W 074°08'3 2.7
2016-May-27 10:33N 40°39' W 074°05'1 0.7
2016-May-27 09:33N 40°39' W 074°06'0 0.0
2016-May-27 08:33N 40°39' W 074°06'0 0.0
2016-May-27 07:33N 40°39' W 074°06'0 0.0
2016-May-27 06:33N 40°39' W 074°06'0 0.0
2016-May-27 05:33N 40°39' W 074°06'0 0.0
2016-May-27 04:33N 40°39' W 074°06'0 0.0
2016-May-27 03:32N 40°39' W 074°06'2 1.7
2016-May-27 02:34N 40°40' W 074°04'1 0.7
2016-May-27 01:33N 40°40' W 074°05'0 0.3
2016-May-27 00:33N 40°40' W 074°04'0 0.0
2016-May-26 23:33N 40°40' W 074°04'2 2.1
2016-May-26 22:33N 40°39' W 074°07'0 0.4
2016-May-26 21:33N 40°39' W 074°06'4 1.9
2016-May-26 19:15N 40°38' W 074°12'4 6.0
2016-May-26 18:33N 40°39' W 074°06'3 2.7
2016-May-26 17:31N 40°39' W 074°10'2 1.6
2016-May-26 16:21N 40°38' W 074°12'2 2.4
2016-May-26 15:33N 40°38' W 074°10'0 0.0
2016-May-26 14:33N 40°38' W 074°10'0 0.0
2016-May-26 13:33N 40°38' W 074°10'0 0.0
2016-May-26 12:33N 40°38' W 074°10'4 4.5
2016-May-26 11:33N 40°38' W 074°04'0 0.2
2016-May-26 10:34N 40°39' W 074°04'4 3.7
2016-May-26 09:32N 40°40' W 074°08'1 1.3
2016-May-26 08:33N 40°41' W 074°08'3 3.3
2016-May-26 07:33N 40°38' W 074°10'0 0.0
2016-May-26 06:33N 40°38' W 074°10'0 0.0
2016-May-26 05:22N 40°38' W 074°10'0 0.0
2016-May-26 04:33N 40°38' W 074°10'0 0.0
2016-May-26 03:31N 40°38' W 074°10'0 0.0
2016-May-26 02:32N 40°38' W 074°10'5 5.3
2016-May-26 01:33N 40°40' W 074°03'2 1.6
2016-May-26 00:33N 40°40' W 074°05'0 0.0
2016-May-25 23:33N 40°40' W 074°05'1 0.9
2016-May-25 22:33N 40°39' W 074°04'3 3.0
2016-May-25 21:32N 40°40' W 074°08'2 2.5
2016-May-25 20:33N 40°39' W 074°06'3 2.5
2016-May-25 19:29N 40°37' W 074°03'5 5.1
2016-May-25 18:30N 40°40' W 074°09'10 1.8
2016-May-25 13:10N 40°31' W 074°15'4 6.3
2016-May-25 12:33N 40°35' W 074°13'1 1.3
2016-May-25 11:33N 40°36' W 074°12'4 4.1
2016-May-25 10:31N 40°40' W 074°09'0 0.0
2016-May-25 09:32N 40°40' W 074°09'0 0.0
2016-May-25 08:31N 40°40' W 074°09'1 1.3
2016-May-25 07:34N 40°39' W 074°10'2 0.1
2016-May-23 21:33N 40°40' W 074°08'0 0.2
2016-May-23 20:33N 40°40' W 074°08'3 2.6
2016-May-23 19:33N 40°39' W 074°05'3 2.7
2016-May-23 18:33N 40°37' W 074°03'4 4.2
2016-May-23 17:34N 40°39' W 074°08'1 0.2
2016-May-23 13:30N 40°39' W 074°09'1 1.3
2016-May-23 12:33N 40°41' W 074°09'1 0.7
2016-May-23 11:32N 40°41' W 074°08'1 0.5
2016-May-23 10:21N 40°42' W 074°08'2 2.7
2016-May-23 09:34N 40°40' W 074°09'0 0.0
2016-May-23 08:34N 40°40' W 074°09'0 0.0
2016-May-23 07:34N 40°40' W 074°09'0 0.0
2016-May-23 06:34N 40°40' W 074°09'0 0.0
2016-May-23 05:34N 40°40' W 074°09'1 0.9
2016-May-23 04:33N 40°40' W 074°08'0 0.1
2016-May-23 03:33N 40°40' W 074°08'0 0.1
2016-May-23 02:34N 40°40' W 074°08'0 0.0
2016-May-23 01:34N 40°40' W 074°08'0 0.0
2016-May-23 00:34N 40°40' W 074°08'0 0.0
2016-May-22 23:34N 40°40' W 074°08'0 0.0
2016-May-22 22:32N 40°40' W 074°08'0 0.1
2016-May-22 21:15N 40°40' W 074°08'2 0.4
2016-May-22 15:06N 40°39' W 074°10'2 3.5
2016-May-22 14:33N 40°40' W 074°09'3 2.7
2016-May-22 13:34N 40°39' W 074°05'1 1.3
2016-May-22 12:34N 40°40' W 074°04'0 0.0
2016-May-22 11:34N 40°40' W 074°04'3 2.6
2016-May-22 10:31N 40°40' W 074°01'6 6.7
2016-May-22 09:33N 40°46' W 074°00'1 0.0
2016-May-21 05:33N 40°45' W 074°01'7 6.8
2016-May-21 04:34N 40°39' W 074°04'6 6.0
2016-May-21 03:33N 40°38' W 074°12'1 0.7
2016-May-21 01:33N 40°39' W 074°11'1 0.8
2016-May-21 00:32N 40°39' W 074°10'2 0.5
2016-May-20 21:16N 40°38' W 074°12'2 0.2
2016-May-20 11:23N 40°38' W 074°10'2 1.9
2016-May-20 10:33N 40°40' W 074°09'1 1.2
2016-May-20 09:33N 40°39' W 074°09'0 0.0
2016-May-20 01:33N 40°39' W 074°09'0 0.1
2016-May-19 23:33N 40°39' W 074°09'0 0.5
2016-May-19 22:33N 40°39' W 074°09'2 1.1
2016-May-19 20:33N 40°39' W 074°06'3 3.2
2016-May-19 19:33N 40°41' W 074°03'4 3.7
2016-May-19 18:33N 40°42' W 073°58'3 2.9
2016-May-19 17:33N 40°41' W 074°01'7 1.6
2016-May-19 13:13N 40°39' W 074°10'2 2.6
2016-May-19 12:33N 40°38' W 074°12'1 1.1
2016-May-19 11:28N 40°39' W 074°11'6 6.1
2016-May-19 10:33N 40°39' W 074°04'1 1.2
2016-May-19 09:33N 40°39' W 074°05'3 0.6
2016-May-19 03:33N 40°38' W 074°09'4 4.1
2016-May-19 02:33N 40°40' W 074°04'2 2.1
2016-May-19 01:33N 40°39' W 074°07'2 1.2
2016-May-18 23:27N 40°38' W 074°10'2 2.4
2016-May-18 22:33N 40°40' W 074°08'1 0.5
2016-May-18 21:33N 40°41' W 074°09'0 0.0
2016-May-18 20:32N 40°41' W 074°09'0 0.0
2016-May-18 19:33N 40°41' W 074°09'1 1.2
2016-May-18 18:32N 40°42' W 074°09'3 3.5
2016-May-18 17:34N 40°38' W 074°09'1 0.9
2016-May-18 16:28N 40°39' W 074°09'1 0.7
2016-May-18 15:33N 40°39' W 074°09'1 0.3
2016-May-18 13:28N 40°38' W 074°10'0 0.0
2016-May-18 11:23N 40°38' W 074°10'0 0.0
2016-May-18 10:33N 40°38' W 074°10'0 0.0
2016-May-18 09:31N 40°38' W 074°10'0 0.0
2016-May-18 08:33N 40°38' W 074°10'2 0.7
2016-May-18 06:17N 40°38' W 074°12'4 5.3
2016-May-18 05:33N 40°39' W 074°07'6 5.7
2016-May-18 04:33N 40°41' W 074°00'0 0.0
2016-May-18 03:34N 40°41' W 074°00'  

Dump ship's entire track history